createdAt,value
2022-10-22T00:02:28.059Z,66.29
2022-10-22T00:04:57.293Z,66.32
2022-10-22T00:07:24.678Z,66.25
2022-10-22T00:09:51.651Z,66.50
2022-10-22T00:12:18.866Z,66.39
2022-10-22T00:14:45.926Z,66.43
2022-10-22T00:17:12.786Z,66.51
2022-10-22T00:19:40.356Z,66.51
2022-10-22T00:22:08.964Z,66.61
2022-10-22T00:24:37.299Z,66.62
2022-10-22T00:27:05.283Z,66.66
2022-10-22T00:29:32.372Z,66.68
2022-10-22T00:31:59.260Z,66.69
2022-10-22T00:34:26.185Z,66.58
2022-10-22T00:36:53.573Z,66.60
2022-10-22T00:39:23.982Z,66.71
2022-10-22T00:41:52.327Z,66.74
2022-10-22T00:44:56.671Z,66.62
2022-10-22T00:47:24.908Z,66.74
2022-10-22T00:49:52.902Z,66.83
2022-10-22T00:52:21.394Z,66.65
2022-10-22T00:54:48.887Z,66.66
2022-10-22T00:57:17.002Z,66.85
2022-10-22T00:59:43.928Z,66.68
2022-10-22T01:02:10.782Z,66.78
2022-10-22T01:04:38.007Z,66.87
2022-10-22T01:07:05.198Z,66.90
2022-10-22T01:09:38.102Z,66.93
2022-10-22T01:12:19.053Z,66.92
2022-10-22T01:15:07.215Z,66.79
2022-10-22T01:17:43.203Z,66.93
2022-10-22T01:20:41.676Z,67.05
2022-10-22T01:23:26.874Z,67.04
2022-10-22T01:26:13.271Z,67.03
2022-10-22T01:29:01.396Z,67.14
2022-10-22T01:31:35.412Z,67.05
2022-10-22T01:34:03.745Z,66.92
2022-10-22T01:36:33.323Z,67.32
2022-10-22T01:39:02.211Z,67.19
2022-10-22T01:41:29.937Z,67.18
2022-10-22T01:43:57.106Z,67.12
2022-10-22T01:46:27.311Z,67.23
2022-10-22T01:49:20.138Z,67.17
2022-10-22T01:52:07.872Z,67.41
2022-10-22T01:54:52.064Z,67.49
2022-10-22T01:57:36.980Z,67.17
2022-10-22T02:00:12.361Z,67.02
2022-10-22T02:02:44.924Z,67.22
2022-10-22T02:05:11.733Z,67.41
2022-10-22T02:08:12.326Z,67.14
2022-10-22T02:10:42.677Z,67.42
2022-10-22T02:13:14.727Z,67.13
2022-10-22T02:15:46.055Z,67.34
2022-10-22T02:18:14.076Z,67.23
2022-10-22T02:20:42.488Z,67.45
2022-10-22T02:23:11.147Z,67.25
2022-10-22T02:25:42.074Z,67.30
2022-10-22T02:28:19.120Z,67.45
2022-10-22T02:30:52.264Z,67.34
2022-10-22T02:33:23.738Z,67.24
2022-10-22T02:35:53.230Z,67.45
2022-10-22T02:38:21.514Z,67.41
2022-10-22T02:40:48.498Z,67.45
2022-10-22T02:43:15.313Z,67.59
2022-10-22T02:45:42.195Z,67.30
2022-10-22T02:48:09.060Z,67.48
2022-10-22T02:50:36.038Z,67.53
2022-10-22T02:53:02.966Z,67.63
2022-10-22T02:55:30.069Z,67.70
2022-10-22T02:57:56.865Z,67.64
2022-10-22T03:00:23.772Z,67.55
2022-10-22T03:02:50.680Z,67.57
2022-10-22T03:05:20.797Z,67.42
2022-10-22T03:07:47.655Z,67.45
2022-10-22T03:10:14.725Z,67.72
2022-10-22T03:12:41.555Z,67.48
2022-10-22T03:15:08.579Z,67.66
2022-10-22T03:17:35.435Z,67.57
2022-10-22T03:20:02.370Z,67.63
2022-10-22T03:22:30.893Z,67.71
2022-10-22T03:25:03.343Z,67.49
2022-10-22T03:27:30.657Z,67.53
2022-10-22T03:29:59.931Z,67.60
2022-10-22T03:32:26.748Z,67.68
2022-10-22T03:34:53.632Z,67.71
2022-10-22T03:37:20.744Z,67.67
2022-10-22T03:39:47.785Z,67.68
2022-10-22T03:42:14.676Z,67.80
2022-10-22T03:44:41.769Z,67.82
2022-10-22T03:47:08.790Z,67.73
2022-10-22T03:49:35.827Z,67.89
2022-10-22T03:52:20.643Z,67.63
2022-10-22T03:54:47.487Z,67.81
2022-10-22T03:57:14.747Z,67.80
2022-10-22T03:59:47.218Z,67.67
2022-10-22T04:02:14.785Z,67.85
2022-10-22T04:04:41.761Z,67.92
2022-10-22T04:07:08.742Z,67.78
2022-10-22T04:09:36.163Z,67.71
2022-10-22T04:12:05.733Z,67.79
2022-10-22T04:14:32.682Z,67.94
2022-10-22T04:16:59.517Z,68.01
2022-10-22T04:19:26.389Z,67.94
2022-10-22T04:21:53.210Z,67.79
2022-10-22T04:24:20.022Z,67.91
2022-10-22T04:26:46.850Z,67.91
2022-10-22T04:29:16.092Z,67.92
2022-10-22T04:31:43.614Z,68.09
2022-10-22T04:34:10.412Z,67.83
2022-10-22T04:36:37.514Z,67.88
2022-10-22T04:39:05.487Z,68.14
2022-10-22T04:41:35.475Z,67.85
2022-10-22T04:44:03.216Z,68.07
2022-10-22T04:46:33.719Z,67.91
2022-10-22T04:49:01.207Z,67.99
2022-10-22T04:51:28.188Z,68.05
2022-10-22T04:53:55.049Z,67.98
2022-10-22T04:56:27.373Z,67.68
2022-10-22T04:59:02.649Z,67.97
2022-10-22T05:01:41.613Z,68.08
2022-10-22T05:04:14.509Z,68.33
2022-10-22T05:06:41.515Z,68.09
2022-10-22T05:09:12.151Z,67.96
2022-10-22T05:11:41.928Z,68.22
2022-10-22T05:14:10.316Z,68.55
2022-10-22T05:16:38.430Z,68.50
2022-10-22T05:19:06.622Z,68.52
2022-10-22T05:21:33.682Z,68.33
2022-10-22T05:24:00.637Z,68.43
2022-10-22T05:26:29.261Z,68.26
2022-10-22T05:28:56.557Z,68.55
2022-10-22T05:31:23.922Z,68.81
2022-10-22T05:33:50.934Z,68.78
2022-10-22T05:36:20.455Z,68.76
2022-10-22T05:38:47.567Z,68.74
2022-10-22T05:41:16.996Z,68.64
2022-10-22T05:43:44.069Z,68.68
2022-10-22T05:46:16.605Z,68.70
2022-10-22T05:48:55.197Z,68.76
2022-10-22T05:51:23.053Z,68.73
2022-10-22T05:53:56.943Z,68.78
2022-10-22T05:56:24.545Z,68.81
2022-10-22T05:58:52.180Z,69.02
2022-10-22T06:01:28.962Z,68.94
2022-10-22T06:03:57.465Z,68.72
2022-10-22T06:06:27.020Z,68.91
2022-10-22T06:08:56.030Z,69.10
2022-10-22T06:11:24.068Z,69.01
2022-10-22T06:13:51.659Z,68.94
2022-10-22T06:16:18.652Z,68.93
2022-10-22T06:18:45.679Z,68.98
2022-10-22T06:21:14.867Z,68.83
2022-10-22T06:23:42.805Z,69.01
2022-10-22T06:26:11.237Z,68.76
2022-10-22T06:28:38.968Z,69.11
2022-10-22T06:31:06.168Z,68.88
2022-10-22T06:33:34.553Z,68.72
2022-10-22T06:36:07.762Z,68.81
2022-10-22T06:38:34.910Z,68.90
2022-10-22T06:41:07.562Z,68.94
2022-10-22T06:43:34.629Z,68.72
2022-10-22T06:46:03.622Z,68.98
2022-10-22T06:48:30.832Z,68.91
2022-10-22T06:51:02.731Z,68.71
2022-10-22T06:53:30.205Z,68.96
2022-10-22T06:55:57.129Z,68.95
2022-10-22T06:58:24.466Z,69.05
2022-10-22T07:01:01.422Z,69.24
2022-10-22T07:03:28.405Z,69.29
2022-10-22T07:05:55.480Z,69.29
2022-10-22T07:08:22.277Z,69.27
2022-10-22T07:10:49.131Z,69.05
2022-10-22T07:13:16.235Z,69.35
2022-10-22T07:15:43.098Z,69.48
2022-10-22T07:18:09.967Z,69.38
2022-10-22T07:20:36.851Z,69.22
2022-10-22T07:23:03.720Z,69.49
2022-10-22T07:25:30.619Z,69.31
2022-10-22T07:27:57.466Z,69.30
2022-10-22T07:30:24.331Z,69.29
2022-10-22T07:32:51.362Z,69.20
2022-10-22T07:35:18.414Z,69.28
2022-10-22T07:37:45.385Z,69.22
2022-10-22T07:40:12.511Z,69.28
2022-10-22T07:42:39.452Z,69.22
2022-10-22T07:45:07.015Z,69.05
2022-10-22T07:47:34.455Z,69.17
2022-10-22T07:50:01.296Z,69.09
2022-10-22T07:52:28.361Z,69.24
2022-10-22T07:54:55.290Z,68.93
2022-10-22T07:57:22.161Z,69.30
2022-10-22T07:59:49.094Z,69.04
2022-10-22T08:02:15.955Z,69.21
2022-10-22T08:04:42.876Z,69.14
2022-10-22T08:07:09.798Z,69.10
2022-10-22T08:09:36.672Z,69.27
2022-10-22T08:12:03.821Z,69.18
2022-10-22T08:14:31.378Z,69.13
2022-10-22T08:16:58.439Z,69.32
2022-10-22T08:19:25.463Z,69.21
2022-10-22T08:21:52.324Z,69.46
2022-10-22T08:24:19.213Z,69.54
2022-10-22T08:26:46.207Z,69.37
2022-10-22T08:29:13.135Z,69.68
2022-10-22T08:31:40.050Z,69.48
2022-10-22T08:34:08.568Z,69.24
2022-10-22T08:36:35.763Z,69.20
2022-10-22T08:39:02.686Z,69.18
2022-10-22T08:41:29.610Z,69.19
2022-10-22T08:44:28.542Z,69.16
2022-10-22T08:47:24.922Z,69.64
2022-10-22T08:49:53.972Z,69.27
2022-10-22T08:52:22.143Z,69.15
2022-10-22T08:54:53.822Z,69.14
2022-10-22T08:57:29.068Z,69.17
2022-10-22T09:00:32.963Z,69.11
2022-10-22T09:03:34.575Z,69.23
2022-10-22T09:06:24.383Z,69.04
2022-10-22T09:08:53.056Z,69.17
2022-10-22T09:11:33.361Z,69.49
2022-10-22T09:14:01.802Z,69.36
2022-10-22T09:17:14.142Z,69.45
2022-10-22T09:20:07.092Z,69.35
2022-10-22T09:23:03.390Z,69.41
2022-10-22T09:25:34.071Z,69.32
2022-10-22T09:28:01.071Z,69.34
2022-10-22T09:30:35.002Z,69.43
2022-10-22T09:33:07.827Z,69.23
2022-10-22T09:35:47.442Z,69.22
2022-10-22T09:38:16.658Z,69.25
2022-10-22T09:40:51.413Z,69.15
2022-10-22T09:43:19.246Z,69.29
2022-10-22T09:45:47.255Z,69.17
2022-10-22T09:48:31.191Z,69.33
2022-10-22T09:51:13.456Z,69.36
2022-10-22T09:53:46.346Z,69.38
2022-10-22T09:56:38.158Z,69.43
2022-10-22T09:59:05.139Z,69.16
2022-10-22T10:01:35.245Z,69.08
2022-10-22T10:04:10.847Z,69.20
2022-10-22T10:06:40.699Z,69.32
2022-10-22T10:09:18.317Z,69.02
2022-10-22T10:12:13.013Z,69.19
2022-10-22T10:14:49.209Z,69.22
2022-10-22T10:17:40.521Z,69.11
2022-10-22T10:20:57.354Z,68.95
2022-10-22T10:24:11.620Z,69.09
2022-10-22T10:26:58.360Z,69.04
2022-10-22T10:29:34.651Z,69.03
2022-10-22T10:32:13.504Z,69.21
2022-10-22T10:34:48.687Z,69.26
2022-10-22T10:37:41.896Z,70.26
2022-10-22T10:40:28.892Z,70.46
2022-10-22T10:43:01.074Z,70.60
2022-10-22T10:46:01.931Z,70.60
2022-10-22T10:48:42.866Z,70.02
2022-10-22T10:51:54.478Z,69.92
2022-10-22T10:54:21.258Z,69.58
2022-10-22T10:56:54.587Z,69.50
2022-10-22T10:59:52.404Z,69.57
2022-10-22T11:02:28.169Z,69.37
2022-10-22T11:05:26.011Z,69.73
2022-10-22T11:07:58.763Z,69.38
2022-10-22T11:10:28.590Z,69.50
2022-10-22T11:13:35.116Z,69.64
2022-10-22T11:16:18.293Z,69.55
2022-10-22T11:19:03.739Z,69.49
2022-10-22T11:21:42.889Z,69.44
2022-10-22T11:24:36.220Z,69.43
2022-10-22T11:27:08.971Z,69.69
2022-10-22T11:29:43.385Z,69.58
2022-10-22T11:32:18.826Z,69.38
2022-10-22T11:34:50.080Z,69.52
2022-10-22T11:37:17.834Z,69.26
2022-10-22T11:40:27.615Z,69.29
2022-10-22T11:42:57.960Z,69.18
2022-10-22T11:45:24.930Z,69.49
2022-10-22T11:48:08.632Z,69.24
2022-10-22T11:51:00.340Z,69.19
2022-10-22T11:53:35.106Z,69.48
2022-10-22T11:56:23.554Z,69.40
2022-10-22T11:58:53.931Z,69.42
2022-10-22T12:01:25.333Z,69.48
2022-10-22T12:03:59.724Z,69.24
2022-10-22T12:06:29.752Z,69.23
2022-10-22T12:09:01.623Z,69.12
2022-10-22T12:11:41.858Z,69.35
2022-10-22T12:14:31.725Z,69.19
2022-10-22T12:17:05.852Z,69.15
2022-10-22T12:19:38.316Z,69.40
2022-10-22T12:22:17.317Z,69.66
2022-10-22T12:24:48.106Z,69.34
2022-10-22T12:27:37.762Z,69.45
2022-10-22T12:30:22.618Z,69.35
2022-10-22T12:32:54.719Z,69.10
2022-10-22T12:35:28.371Z,69.21
2022-10-22T12:38:05.719Z,69.15
2022-10-22T12:40:35.990Z,69.29
2022-10-22T12:43:12.308Z,69.32
2022-10-22T12:45:40.812Z,69.26
2022-10-22T12:48:25.180Z,69.39
2022-10-22T12:50:58.930Z,69.15
2022-10-22T12:53:38.080Z,69.16
2022-10-22T12:56:07.776Z,69.14
2022-10-22T12:58:52.401Z,69.24
2022-10-22T13:01:19.715Z,69.21
2022-10-22T13:03:52.583Z,69.13
2022-10-22T13:06:19.429Z,69.37
2022-10-22T13:09:04.668Z,69.23
2022-10-22T13:11:34.285Z,69.21
2022-10-22T13:14:06.080Z,69.66
2022-10-22T13:16:33.496Z,69.62
2022-10-22T13:19:00.417Z,69.69
2022-10-22T13:21:37.796Z,69.41
2022-10-22T13:24:21.275Z,69.79
2022-10-22T13:26:53.677Z,69.58
2022-10-22T13:29:22.793Z,69.69
2022-10-22T13:31:52.616Z,69.77
2022-10-22T13:34:25.797Z,69.67
2022-10-22T13:36:52.912Z,69.60
2022-10-22T13:39:23.145Z,69.89
2022-10-22T13:41:51.440Z,69.84
2022-10-22T13:44:21.450Z,69.66
2022-10-22T13:46:48.908Z,69.58
2022-10-22T13:49:19.139Z,69.68
2022-10-22T13:51:47.040Z,69.61
2022-10-22T13:54:17.997Z,69.61
2022-10-22T13:56:44.925Z,69.88
2022-10-22T13:59:11.895Z,69.71
2022-10-22T14:01:39.378Z,69.59
2022-10-22T14:04:08.511Z,69.78
2022-10-22T14:09:12.181Z,69.58
2022-10-22T14:11:39.332Z,69.40
2022-10-22T14:14:09.070Z,69.60
2022-10-22T14:16:37.975Z,69.33
2022-10-22T14:19:07.957Z,69.53
2022-10-22T14:21:38.019Z,70.03
2022-10-22T14:24:07.238Z,70.24
2022-10-22T14:26:36.696Z,69.97
2022-10-22T14:29:09.198Z,70.71
2022-10-22T14:34:26.542Z,71.25
2022-10-22T14:36:53.448Z,70.86
2022-10-22T14:39:21.819Z,70.61
2022-10-22T14:41:48.702Z,70.78
2022-10-22T14:44:15.875Z,70.67
2022-10-22T14:46:44.669Z,70.75
2022-10-22T14:49:11.991Z,70.62
2022-10-22T14:51:39.256Z,70.60
2022-10-22T14:54:06.141Z,70.64
2022-10-22T14:56:33.233Z,70.59
2022-10-22T14:59:00.165Z,70.40
2022-10-22T15:01:27.148Z,70.58
2022-10-22T15:03:54.233Z,70.76
2022-10-22T15:06:21.137Z,70.71
2022-10-22T15:08:48.231Z,70.88
2022-10-22T15:11:15.388Z,70.79
2022-10-22T15:13:42.525Z,70.66
2022-10-22T15:16:11.650Z,70.34
2022-10-22T15:18:38.691Z,70.25
2022-10-22T15:21:13.698Z,70.38
2022-10-22T15:23:41.303Z,70.33
2022-10-22T15:26:09.152Z,70.20
2022-10-22T15:28:37.545Z,70.22
2022-10-22T15:31:05.621Z,70.12
2022-10-22T15:33:32.745Z,70.03
2022-10-22T15:36:08.995Z,70.05
2022-10-22T15:38:36.136Z,70.14
2022-10-22T15:41:07.625Z,69.99
2022-10-22T15:43:35.233Z,69.85
2022-10-22T15:46:16.517Z,70.02
2022-10-22T15:48:43.789Z,69.84
2022-10-22T15:51:16.235Z,69.74
2022-10-22T15:53:43.740Z,69.74
2022-10-22T15:56:12.289Z,69.75
2022-10-22T15:58:39.255Z,69.94
2022-10-22T16:01:11.860Z,70.19
2022-10-22T16:03:39.366Z,70.21
2022-10-22T16:06:07.973Z,70.30
2022-10-22T16:08:35.397Z,69.97
2022-10-22T16:11:02.466Z,70.04
2022-10-22T16:13:29.549Z,69.73
2022-10-22T16:15:56.440Z,69.65
2022-10-22T16:18:23.954Z,69.63
2022-10-22T16:20:51.178Z,69.64
2022-10-22T16:23:19.303Z,69.70
2022-10-22T16:25:46.957Z,69.54
2022-10-22T16:28:14.377Z,69.66
2022-10-22T16:30:42.037Z,69.55
2022-10-22T16:33:10.800Z,69.47
2022-10-22T16:35:42.678Z,69.55
2022-10-22T16:38:11.103Z,69.23
2022-10-22T16:40:38.512Z,68.98
2022-10-22T16:43:06.186Z,68.68
2022-10-22T16:45:33.193Z,68.69
2022-10-22T16:48:00.428Z,68.49
2022-10-22T16:50:27.527Z,68.28
2022-10-22T16:52:54.432Z,68.19
2022-10-22T16:55:21.597Z,67.88
2022-10-22T16:57:52.630Z,67.72
2022-10-22T17:00:20.688Z,67.40
2022-10-22T17:02:54.706Z,67.27
2022-10-22T17:05:22.387Z,67.13
2022-10-22T17:07:50.041Z,67.08
2022-10-22T17:10:20.095Z,66.61
2022-10-22T17:12:49.066Z,66.66
2022-10-22T17:15:16.283Z,66.33
2022-10-22T17:17:43.797Z,66.39
2022-10-22T17:20:11.936Z,66.04
2022-10-22T17:22:39.213Z,66.00
2022-10-22T17:25:25.811Z,65.93
2022-10-22T17:27:55.458Z,65.67
2022-10-22T17:30:26.483Z,65.52
2022-10-22T17:32:55.249Z,65.49
2022-10-22T17:35:22.479Z,65.26
2022-10-22T17:37:49.561Z,65.12
2022-10-22T17:40:16.672Z,65.13
2022-10-22T17:42:45.767Z,64.97
2022-10-22T17:45:12.840Z,64.76
2022-10-22T17:47:40.094Z,64.55
2022-10-22T17:50:08.080Z,64.56
2022-10-22T17:52:35.861Z,64.40
2022-10-22T17:55:04.001Z,64.17
2022-10-22T17:57:30.995Z,64.16
2022-10-22T17:59:58.265Z,63.88
2022-10-22T18:02:25.358Z,63.75
2022-10-22T18:04:53.001Z,63.74
2022-10-22T18:07:21.346Z,63.77
2022-10-22T18:09:48.562Z,63.88
2022-10-22T18:12:18.516Z,64.05
2022-10-22T18:14:47.344Z,64.01
2022-10-22T18:20:01.846Z,63.59
2022-10-22T18:22:28.838Z,63.61
2022-10-22T18:24:55.802Z,63.75
2022-10-22T18:27:23.395Z,63.81
2022-10-22T18:29:51.190Z,63.74
2022-10-22T18:32:18.098Z,64.29
2022-10-22T18:34:45.220Z,64.07
2022-10-22T18:37:12.690Z,64.20
2022-10-22T18:39:39.716Z,64.05
2022-10-22T18:42:07.675Z,64.16
2022-10-22T18:44:36.422Z,64.26
2022-10-22T18:47:03.554Z,64.36
2022-10-22T18:49:30.657Z,64.37
2022-10-22T18:51:57.756Z,64.34
2022-10-22T18:54:25.075Z,64.35
2022-10-22T18:56:53.393Z,64.43
2022-10-22T18:59:23.155Z,64.54
2022-10-22T19:01:52.464Z,64.40
2022-10-22T19:04:19.534Z,64.55
2022-10-22T19:06:46.685Z,64.35
2022-10-22T19:09:16.502Z,64.21
2022-10-22T19:11:45.523Z,64.36
2022-10-22T19:14:15.278Z,64.41
2022-10-22T19:16:42.241Z,64.18
2022-10-22T19:19:09.421Z,64.44
2022-10-22T19:21:38.756Z,64.22
2022-10-22T19:24:06.843Z,64.28
2022-10-22T19:26:35.054Z,64.24
2022-10-22T19:29:03.173Z,63.85
2022-10-22T19:31:31.522Z,63.83
2022-10-22T19:34:03.627Z,63.70
2022-10-22T19:36:32.996Z,63.72
2022-10-22T19:39:00.560Z,63.92
2022-10-22T19:41:29.683Z,63.68
2022-10-22T19:43:59.739Z,63.58
2022-10-22T19:46:29.089Z,63.48
2022-10-22T19:48:57.578Z,63.54
2022-10-22T19:51:28.118Z,63.70
2022-10-22T19:54:04.224Z,63.62
2022-10-22T19:56:32.950Z,63.43
2022-10-22T19:59:00.228Z,63.20
2022-10-22T20:01:27.843Z,63.34
2022-10-22T20:03:55.274Z,63.25
2022-10-22T20:06:23.038Z,63.09
2022-10-22T20:08:55.978Z,63.09
2022-10-22T20:11:26.717Z,62.85
2022-10-22T20:13:54.637Z,62.98
2022-10-22T20:16:24.976Z,62.88
2022-10-22T20:18:54.777Z,63.07
2022-10-22T20:21:24.253Z,63.04
2022-10-22T20:23:56.701Z,62.86
2022-10-22T20:26:24.944Z,62.68
2022-10-22T20:28:54.056Z,62.69
2022-10-22T20:31:22.950Z,62.79
2022-10-22T20:33:51.160Z,62.88
2022-10-22T20:36:21.514Z,62.54
2022-10-22T20:38:51.568Z,62.66
2022-10-22T20:41:23.309Z,62.67
2022-10-22T20:43:53.449Z,62.70
2022-10-22T20:46:24.877Z,62.59
2022-10-22T20:48:53.884Z,62.50
2022-10-22T20:51:21.273Z,62.56
2022-10-22T20:53:48.480Z,62.51
2022-10-22T20:56:16.855Z,62.63
2022-10-22T20:58:48.564Z,62.65
2022-10-22T21:01:21.984Z,62.52
2022-10-22T21:03:50.750Z,62.79
2022-10-22T21:06:18.464Z,62.64
2022-10-22T21:08:45.460Z,62.84
2022-10-22T21:11:12.905Z,62.56
2022-10-22T21:13:39.960Z,62.66
2022-10-22T21:16:11.077Z,62.79
2022-10-22T21:18:38.040Z,63.03
2022-10-22T21:21:06.891Z,62.87
2022-10-22T21:23:35.714Z,63.23
2022-10-22T21:26:03.385Z,63.32
2022-10-22T21:28:32.604Z,63.28
2022-10-22T21:30:59.665Z,63.45
2022-10-22T21:33:26.867Z,63.38
2022-10-22T21:35:55.691Z,63.52
2022-10-22T21:38:25.021Z,63.67
2022-10-22T21:40:52.481Z,63.61
2022-10-22T21:43:19.422Z,63.67
2022-10-22T21:45:46.770Z,63.77
2022-10-22T21:48:14.703Z,63.53
2022-10-22T21:50:43.863Z,63.73
2022-10-22T21:53:12.540Z,63.87
2022-10-22T21:55:42.754Z,64.12
2022-10-22T21:58:09.774Z,63.97
2022-10-22T22:00:36.982Z,64.01
2022-10-22T22:03:07.905Z,63.98
2022-10-22T22:05:34.975Z,63.98
2022-10-22T22:08:01.907Z,64.25
2022-10-22T22:10:30.242Z,64.02
2022-10-22T22:12:57.205Z,64.06
2022-10-22T22:15:24.203Z,64.21
2022-10-22T22:17:51.306Z,64.17
2022-10-22T22:20:18.305Z,64.40
2022-10-22T22:22:45.220Z,64.36
2022-10-22T22:25:12.098Z,64.44
2022-10-22T22:27:39.291Z,64.44
2022-10-22T22:30:07.073Z,64.56
2022-10-22T22:32:34.034Z,64.60
2022-10-22T22:35:01.018Z,64.56
2022-10-22T22:37:28.258Z,64.72
2022-10-22T22:39:55.328Z,64.62
2022-10-22T22:42:22.338Z,64.62
2022-10-22T22:44:49.274Z,64.67
2022-10-22T22:47:17.006Z,64.70
2022-10-22T22:49:43.939Z,64.65
2022-10-22T22:52:10.947Z,64.60
2022-10-22T22:54:37.855Z,64.79
2022-10-22T22:57:04.901Z,64.90
2022-10-22T22:59:31.730Z,64.86
2022-10-22T23:01:58.866Z,64.83
2022-10-22T23:04:26.574Z,64.81
2022-10-22T23:06:53.530Z,64.95
2022-10-22T23:12:07.977Z,65.05
2022-10-22T23:14:34.915Z,65.12
2022-10-22T23:17:01.793Z,65.14
2022-10-22T23:19:28.609Z,65.03
2022-10-22T23:21:56.536Z,65.23
2022-10-22T23:24:26.511Z,65.30
2022-10-22T23:26:55.196Z,65.22
2022-10-22T23:29:26.537Z,65.22
2022-10-22T23:31:54.565Z,65.26
2022-10-22T23:34:24.644Z,65.24
2022-10-22T23:36:52.097Z,65.25
2022-10-22T23:39:21.485Z,65.26
2022-10-22T23:41:48.984Z,65.28
2022-10-22T23:44:15.910Z,65.30
2022-10-22T23:46:43.293Z,65.31
2022-10-22T23:49:11.344Z,65.30
2022-10-22T23:51:39.263Z,65.30
2022-10-22T23:54:08.691Z,65.50
2022-10-22T23:56:36.235Z,65.55
2022-10-22T23:59:04.182Z,65.56
